EGCC/MAN METAR and TAF weather

Enter ICAO airport designator
Station Type Date Time Source
EGCC METAR 2022/06/26 08:50 UTC NOAA

EGCC 260850Z AUTO 18010KT 110V220 9999 BKN031 BKN037 16/08 Q1007


Station Type Date Time Source
EGCC Decoded METAR 2022/06/26 08:50 UTC NOAA

Manchester Airport, United Kingdom (EGCC) 53-21N 002-17W 0M
Jun 26, 2022 - 04:50 AM EDT / 2022.06.26 0850 UTC
Wind: from the S (180 degrees) at 12 MPH (10 KT) (direction variable):0
Visibility: greater than 7 mile(s):0
Sky conditions: mostly cloudy
Temperature: 60 F (16 C)
Dew Point: 46 F (8 C)
Relative Humidity: 58%
Pressure (altimeter): 29.74 in. Hg (1007 hPa)
ob: EGCC 260850Z AUTO 18010KT 110V220 9999 BKN031 BKN037 16/08 Q1007
cycle: 9

Station Type Date Time Source
EGCC TAF 2022/06/26 06:09 UTC NOAA

TAF EGCC 260457Z 2606/2712 18009KT 9999 SCT040
BECMG 2606/2609 19019KT
TEMPO 2609/2623 20022G32KT
BECMG 2622/2701 18009KT
TEMPO 2702/2706 6000 RA BKN014 PROB30
TEMPO 2706/2712 7000 SHRA BKN014

Example: see airport list